sensor_id;sensor_type;location;lat;lon;timestamp;pressure;altitude;pressure_sealevel;temperature;humidity
63287;BME280;49410;55.708;37.522;2022-08-04T00:00:27;99829.81;;;19.32;nan
63287;BME280;49410;55.708;37.522;2022-08-04T00:03:18;99831.72;;;19.32;nan
63287;BME280;49410;55.708;37.522;2022-08-04T00:10:53;99835.41;;;19.26;nan
63287;BME280;49410;55.708;37.522;2022-08-04T00:13:26;99828.59;;;19.21;nan
63287;BME280;49410;55.708;37.522;2022-08-04T00:15:53;99822.03;;;19.16;nan
63287;BME280;49410;55.708;37.522;2022-08-04T00:18:39;99826.88;;;19.20;nan
63287;BME280;49410;55.708;37.522;2022-08-04T00:21:05;99835.84;;;19.22;nan
63287;BME280;49410;55.708;37.522;2022-08-04T00:23:35;99829.03;;;19.18;nan
63287;BME280;49410;55.708;37.522;2022-08-04T00:26:03;99829.31;;;19.10;nan
63287;BME280;49410;55.708;37.522;2022-08-04T00:28:29;99839.72;;;19.15;nan
63287;BME280;49410;55.708;37.522;2022-08-04T00:30:54;99829.13;;;19.05;nan
63287;BME280;49410;55.708;37.522;2022-08-04T00:33:20;99833.81;;;19.04;nan
63287;BME280;49410;55.708;37.522;2022-08-04T00:35:50;99820.22;;;18.96;nan
63287;BME280;49410;55.708;37.522;2022-08-04T00:38:17;99825.13;;;18.94;nan
63287;BME280;49410;55.708;37.522;2022-08-04T00:40:52;99834.94;;;18.97;nan
63287;BME280;49410;55.708;37.522;2022-08-04T00:43:33;99829.16;;;18.91;nan
63287;BME280;49410;55.708;37.522;2022-08-04T00:52:04;99836.69;;;18.84;nan
63287;BME280;49410;55.708;37.522;2022-08-04T01:00:10;99839.25;;;18.79;nan
63287;BME280;49410;55.708;37.522;2022-08-04T01:03:08;99851.38;;;18.85;nan
63287;BME280;49410;55.708;37.522;2022-08-04T01:05:43;99849.63;;;18.90;nan
63287;BME280;49410;55.708;37.522;2022-08-04T01:08:40;99850.25;;;18.92;nan
63287;BME280;49410;55.708;37.522;2022-08-04T01:14:10;99845.59;;;18.93;nan
63287;BME280;49410;55.708;37.522;2022-08-04T01:16:48;99856.84;;;19.05;nan
63287;BME280;49410;55.708;37.522;2022-08-04T01:19:49;99861.50;;;19.11;nan
63287;BME280;49410;55.708;37.522;2022-08-04T01:22:42;99848.06;;;19.08;nan
63287;BME280;49410;55.708;37.522;2022-08-04T01:30:56;99848.66;;;19.17;nan
63287;BME280;49410;55.708;37.522;2022-08-04T01:33:26;99852.91;;;19.19;nan
63287;BME280;49410;55.708;37.522;2022-08-04T01:35:55;99860.97;;;19.28;nan
63287;BME280;49410;55.708;37.522;2022-08-04T01:38:27;99840.13;;;19.18;nan
63287;BME280;49410;55.708;37.522;2022-08-04T01:40:59;99869.69;;;19.31;nan
63287;BME280;49410;55.708;37.522;2022-08-04T01:43:29;99861.81;;;19.28;nan
63287;BME280;49410;55.708;37.522;2022-08-04T01:46:03;99865.63;;;19.34;nan
63287;BME280;49410;55.708;37.522;2022-08-04T01:48:29;99862.44;;;19.30;nan
63287;BME280;49410;55.708;37.522;2022-08-04T01:50:57;99861.19;;;19.26;nan
63287;BME280;49410;55.708;37.522;2022-08-04T01:53:28;99857.59;;;19.19;nan
63287;BME280;49410;55.708;37.522;2022-08-04T01:55:56;99864.00;;;19.19;nan
63287;BME280;49410;55.708;37.522;2022-08-04T01:58:23;99865.72;;;19.14;nan
63287;BME280;49410;55.708;37.522;2022-08-04T02:00:58;99863.19;;;19.12;nan
63287;BME280;49410;55.708;37.522;2022-08-04T02:03:27;99872.53;;;19.18;nan
63287;BME280;49410;55.708;37.522;2022-08-04T02:08:50;99867.16;;;19.23;nan
63287;BME280;49410;55.708;37.522;2022-08-04T02:11:21;99861.84;;;19.21;nan
63287;BME280;49410;55.708;37.522;2022-08-04T02:21:56;99862.81;;;19.40;nan
63287;BME280;49410;55.708;37.522;2022-08-04T02:24:25;99866.81;;;19.45;nan
63287;BME280;49410;55.708;37.522;2022-08-04T02:26:52;99866.94;;;19.57;nan
63287;BME280;49410;55.708;37.522;2022-08-04T02:29:21;99868.22;;;19.54;nan
63287;BME280;49410;55.708;37.522;2022-08-04T02:32:03;99875.44;;;19.62;nan
63287;BME280;49410;55.708;37.522;2022-08-04T02:37:04;99875.56;;;19.74;nan
63287;BME280;49410;55.708;37.522;2022-08-04T02:39:33;99871.47;;;19.76;nan
63287;BME280;49410;55.708;37.522;2022-08-04T02:42:01;99873.56;;;19.81;nan
63287;BME280;49410;55.708;37.522;2022-08-04T02:44:27;99882.28;;;19.91;nan
63287;BME280;49410;55.708;37.522;2022-08-04T02:46:54;99875.41;;;19.94;nan
63287;BME280;49410;55.708;37.522;2022-08-04T02:49:21;99879.44;;;19.98;nan
63287;BME280;49410;55.708;37.522;2022-08-04T02:51:52;99882.75;;;20.07;nan
63287;BME280;49410;55.708;37.522;2022-08-04T02:54:22;99872.53;;;20.07;nan
63287;BME280;49410;55.708;37.522;2022-08-04T02:56:51;99876.50;;;20.11;nan
63287;BME280;49410;55.708;37.522;2022-08-04T02:59:19;99878.41;;;20.17;nan
63287;BME280;49410;55.708;37.522;2022-08-04T03:01:47;99874.06;;;20.22;nan
63287;BME280;49410;55.708;37.522;2022-08-04T03:04:50;99888.91;;;20.34;nan
63287;BME280;49410;55.708;37.522;2022-08-04T03:07:49;99894.38;;;20.41;nan
63287;BME280;49410;55.708;37.522;2022-08-04T03:30:18;100001.03;;;21.51;nan
63287;BME280;49410;55.708;37.522;2022-08-04T03:38:42;100002.31;;;23.40;nan
63287;BME280;49410;55.708;37.522;2022-08-04T03:41:30;100006.00;;;23.87;nan
63287;BME280;49410;55.708;37.522;2022-08-04T03:53:27;100016.81;;;25.20;nan
63287;BME280;49410;55.708;37.522;2022-08-04T03:56:28;100007.81;;;25.57;nan
63287;BME280;49410;55.708;37.522;2022-08-04T04:29:50;100026.00;;;27.91;nan
63287;BME280;49410;55.708;37.522;2022-08-04T04:34:52;100028.25;;;27.99;nan
63287;BME280;49410;55.708;37.522;2022-08-04T04:51:27;100024.66;;;28.30;nan
63287;BME280;49410;55.708;37.522;2022-08-04T04:59:55;100033.81;;;29.28;nan
63287;BME280;49410;55.708;37.522;2022-08-04T05:13:51;100038.22;;;30.80;nan
63287;BME280;49410;55.708;37.522;2022-08-04T05:22:11;100029.75;;;31.58;nan
63287;BME280;49410;55.708;37.522;2022-08-04T05:27:11;100026.19;;;31.90;nan
63287;BME280;49410;55.708;37.522;2022-08-04T05:29:49;100022.56;;;32.09;nan
63287;BME280;49410;55.708;37.522;2022-08-04T05:32:16;100018.34;;;32.26;nan
63287;BME280;49410;55.708;37.522;2022-08-04T05:34:59;100021.63;;;32.33;nan
63287;BME280;49410;55.708;37.522;2022-08-04T05:37:29;100007.78;;;32.50;nan
63287;BME280;49410;55.708;37.522;2022-08-04T05:39:59;100020.16;;;32.68;nan
63287;BME280;49410;55.708;37.522;2022-08-04T05:42:29;100006.69;;;32.79;nan
63287;BME280;49410;55.708;37.522;2022-08-04T05:44:56;100032.81;;;33.04;nan
63287;BME280;49410;55.708;37.522;2022-08-04T05:49:49;100017.09;;;32.98;nan
63287;BME280;49410;55.708;37.522;2022-08-04T05:52:17;100013.94;;;32.86;nan
63287;BME280;49410;55.708;37.522;2022-08-04T05:57:09;100017.84;;;33.04;nan
63287;BME280;49410;55.708;37.522;2022-08-04T05:59:39;100005.91;;;32.27;nan
63287;BME280;49410;55.708;37.522;2022-08-04T06:02:11;100005.84;;;32.46;nan
63287;BME280;49410;55.708;37.522;2022-08-04T06:04:42;99995.25;;;32.18;nan
63287;BME280;49410;55.708;37.522;2022-08-04T06:07:08;100009.78;;;32.31;nan
63287;BME280;49410;55.708;37.522;2022-08-04T06:09:37;100015.53;;;32.26;nan
63287;BME280;49410;55.708;37.522;2022-08-04T06:12:06;100023.06;;;32.11;nan
63287;BME280;49410;55.708;37.522;2022-08-04T06:14:44;99940.03;;;31.88;nan
63287;BME280;49410;55.708;37.522;2022-08-04T06:17:23;99923.03;;;31.74;nan
63287;BME280;49410;55.708;37.522;2022-08-04T06:19:51;99903.91;;;31.47;nan
63287;BME280;49410;55.708;37.522;2022-08-04T06:22:18;99924.44;;;31.09;nan
63287;BME280;49410;55.708;37.522;2022-08-04T06:24:47;99923.06;;;31.06;nan
63287;BME280;49410;55.708;37.522;2022-08-04T06:27:14;99933.72;;;31.14;nan
63287;BME280;49410;55.708;37.522;2022-08-04T06:29:41;99937.63;;;30.94;nan
63287;BME280;49410;55.708;37.522;2022-08-04T06:32:09;99926.88;;;30.72;nan
63287;BME280;49410;55.708;37.522;2022-08-04T06:34:55;99924.25;;;30.51;nan
63287;BME280;49410;55.708;37.522;2022-08-04T06:37:22;99935.81;;;30.50;nan
63287;BME280;49410;55.708;37.522;2022-08-04T06:39:49;99929.13;;;30.41;nan
63287;BME280;49410;55.708;37.522;2022-08-04T06:42:18;99927.66;;;30.48;nan
63287;BME280;49410;55.708;37.522;2022-08-04T06:44:48;99935.81;;;30.50;nan
63287;BME280;49410;55.708;37.522;2022-08-04T06:47:16;99932.44;;;30.53;nan
63287;BME280;49410;55.708;37.522;2022-08-04T06:49:45;99926.28;;;30.16;nan
63287;BME280;49410;55.708;37.522;2022-08-04T06:52:13;99934.63;;;29.92;nan
63287;BME280;49410;55.708;37.522;2022-08-04T06:54:45;99941.31;;;29.62;nan
63287;BME280;49410;55.708;37.522;2022-08-04T06:57:14;99933.16;;;29.60;nan
63287;BME280;49410;55.708;37.522;2022-08-04T06:59:49;99927.91;;;29.43;nan
63287;BME280;49410;55.708;37.522;2022-08-04T07:02:21;99929.22;;;29.61;nan
63287;BME280;49410;55.708;37.522;2022-08-04T07:04:48;99925.22;;;29.67;nan
63287;BME280;49410;55.708;37.522;2022-08-04T07:07:16;99930.91;;;29.62;nan
63287;BME280;49410;55.708;37.522;2022-08-04T07:09:42;99927.00;;;29.53;nan
63287;BME280;49410;55.708;37.522;2022-08-04T07:12:09;99927.00;;;29.53;nan
63287;BME280;49410;55.708;37.522;2022-08-04T07:14:35;99934.47;;;29.18;nan
63287;BME280;49410;55.708;37.522;2022-08-04T07:17:03;99915.03;;;29.21;nan
63287;BME280;49410;55.708;37.522;2022-08-04T07:19:31;99928.75;;;29.43;nan
63287;BME280;49410;55.708;37.522;2022-08-04T07:21:59;99932.56;;;29.08;nan
63287;BME280;49410;55.708;37.522;2022-08-04T07:24:29;99914.88;;;29.02;nan
63287;BME280;49410;55.708;37.522;2022-08-04T07:26:55;99928.28;;;29.16;nan
63287;BME280;49410;55.708;37.522;2022-08-04T07:29:21;99926.28;;;29.26;nan
63287;BME280;49410;55.708;37.522;2022-08-04T07:31:48;99918.97;;;29.25;nan
63287;BME280;49410;55.708;37.522;2022-08-04T07:34:14;99916.44;;;29.34;nan
63287;BME280;49410;55.708;37.522;2022-08-04T07:36:40;99924.84;;;29.39;nan
63287;BME280;49410;55.708;37.522;2022-08-04T07:39:05;99907.56;;;29.51;nan
63287;BME280;49410;55.708;37.522;2022-08-04T07:41:31;99917.19;;;29.50;nan
63287;BME280;49410;55.708;37.522;2022-08-04T07:43:57;99907.09;;;29.39;nan
63287;BME280;49410;55.708;37.522;2022-08-04T07:46:24;99917.13;;;29.55;nan
63287;BME280;49410;55.708;37.522;2022-08-04T07:48:50;99912.88;;;29.63;nan
63287;BME280;49410;55.708;37.522;2022-08-04T07:51:16;99919.31;;;29.69;nan
63287;BME280;49410;55.708;37.522;2022-08-04T07:53:41;99909.25;;;29.52;nan
63287;BME280;49410;55.708;37.522;2022-08-04T07:56:08;99915.75;;;29.53;nan
63287;BME280;49410;55.708;37.522;2022-08-04T07:58:35;99912.25;;;29.66;nan
63287;BME280;49410;55.708;37.522;2022-08-04T08:01:00;99927.97;;;29.78;nan
63287;BME280;49410;55.708;37.522;2022-08-04T08:03:26;99916.56;;;29.58;nan
63287;BME280;49410;55.708;37.522;2022-08-04T08:05:52;99914.63;;;29.54;nan
63287;BME280;49410;55.708;37.522;2022-08-04T08:08:18;99928.00;;;29.72;nan
63287;BME280;49410;55.708;37.522;2022-08-04T08:10:48;99924.63;;;29.70;nan
63287;BME280;49410;55.708;37.522;2022-08-04T08:13:14;99909.81;;;29.54;nan
63287;BME280;49410;55.708;37.522;2022-08-04T08:15:44;99925.75;;;29.74;nan
63287;BME280;49410;55.708;37.522;2022-08-04T08:18:09;99923.09;;;29.88;nan
63287;BME280;49410;55.708;37.522;2022-08-04T08:20:35;99916.03;;;29.96;nan
63287;BME280;49410;55.708;37.522;2022-08-04T08:23:01;99906.78;;;29.85;nan
63287;BME280;49410;55.708;37.522;2022-08-04T08:25:29;99915.72;;;29.93;nan
63287;BME280;49410;55.708;37.522;2022-08-04T08:27:55;99925.81;;;30.04;nan
63287;BME280;49410;55.708;37.522;2022-08-04T08:30:20;99915.72;;;29.93;nan
63287;BME280;49410;55.708;37.522;2022-08-04T08:32:46;99915.16;;;30.01;nan
63287;BME280;49410;55.708;37.522;2022-08-04T08:35:12;99916.25;;;29.60;nan
63287;BME280;49410;55.708;37.522;2022-08-04T08:37:42;99924.06;;;29.68;nan
63287;BME280;49410;55.708;37.522;2022-08-04T08:40:39;99920.06;;;29.80;nan
63287;BME280;49410;55.708;37.522;2022-08-04T08:51:11;99911.59;;;30.19;nan
63287;BME280;49410;55.708;37.522;2022-08-04T08:54:09;99914.41;;;30.19;nan
63287;BME280;49410;55.708;37.522;2022-08-04T09:00:00;99914.44;;;30.44;nan
63287;BME280;49410;55.708;37.522;2022-08-04T09:10:41;99911.50;;;30.83;nan
63287;BME280;49410;55.708;37.522;2022-08-04T09:13:43;99905.91;;;31.03;nan
63287;BME280;49410;55.708;37.522;2022-08-04T09:16:35;99905.91;;;31.03;nan
63287;BME280;49410;55.708;37.522;2022-08-04T09:19:32;99911.44;;;31.13;nan
63287;BME280;49410;55.708;37.522;2022-08-04T09:27:54;99912.91;;;31.05;nan
63287;BME280;49410;55.708;37.522;2022-08-04T09:30:30;99907.81;;;31.07;nan
63287;BME280;49410;55.708;37.522;2022-08-04T09:33:06;99907.81;;;31.07;nan
63287;BME280;49410;55.708;37.522;2022-08-04T09:35:54;99893.69;;;31.12;nan
63287;BME280;49410;55.708;37.522;2022-08-04T09:38:32;99908.41;;;31.04;nan
63287;BME280;49410;55.708;37.522;2022-08-04T09:43:54;99889.94;;;30.68;nan
63287;BME280;49410;55.708;37.522;2022-08-04T09:49:01;99889.91;;;30.44;nan
63287;BME280;49410;55.708;37.522;2022-08-04T09:54:32;99900.75;;;30.61;nan
63287;BME280;49410;55.708;37.522;2022-08-04T10:00:05;99903.56;;;30.86;nan
63287;BME280;49410;55.708;37.522;2022-08-04T10:02:37;99903.28;;;30.87;nan
63287;BME280;49410;55.708;37.522;2022-08-04T10:05:10;99900.59;;;30.77;nan
63287;BME280;49410;55.708;37.522;2022-08-04T10:13:12;99897.41;;;30.30;nan
63287;BME280;49410;55.708;37.522;2022-08-04T10:15:56;99902.41;;;30.33;nan
63287;BME280;49410;55.708;37.522;2022-08-04T10:31:54;99880.84;;;30.77;nan
63287;BME280;49410;55.708;37.522;2022-08-04T10:34:26;99887.88;;;30.98;nan
63287;BME280;49410;55.708;37.522;2022-08-04T10:37:04;99891.69;;;30.89;nan
63287;BME280;49410;55.708;37.522;2022-08-04T10:39:47;99883.13;;;30.75;nan
63287;BME280;49410;55.708;37.522;2022-08-04T10:42:38;99872.84;;;30.84;nan
63287;BME280;49410;55.708;37.522;2022-08-04T10:45:17;99885.13;;;30.93;nan
63287;BME280;49410;55.708;37.522;2022-08-04T10:47:51;99889.28;;;31.01;nan
63287;BME280;49410;55.708;37.522;2022-08-04T10:50:22;99892.00;;;31.11;nan
63287;BME280;49410;55.708;37.522;2022-08-04T10:53:02;99875.72;;;31.03;nan
63287;BME280;49410;55.708;37.522;2022-08-04T10:55:34;99894.59;;;31.03;nan
63287;BME280;49410;55.708;37.522;2022-08-04T10:58:04;99875.19;;;30.77;nan
63287;BME280;49410;55.708;37.522;2022-08-04T11:00:32;99883.00;;;30.85;nan
63287;BME280;49410;55.708;37.522;2022-08-04T11:05:43;99901.84;;;30.65;nan
63287;BME280;49410;55.708;37.522;2022-08-04T11:08:14;99893.81;;;30.48;nan
63287;BME280;49410;55.708;37.522;2022-08-04T11:10:58;99897.53;;;30.44;nan
63287;BME280;49410;55.708;37.522;2022-08-04T11:13:31;99893.63;;;30.40;nan
63287;BME280;49410;55.708;37.522;2022-08-04T11:16:02;99900.13;;;30.40;nan
63287;BME280;49410;55.708;37.522;2022-08-04T11:21:46;99886.50;;;30.18;nan
63287;BME280;49410;55.708;37.522;2022-08-04T11:27:42;99896.19;;;30.36;nan
63287;BME280;49410;55.708;37.522;2022-08-04T11:30:11;99880.38;;;30.40;nan
63287;BME280;49410;55.708;37.522;2022-08-04T11:32:52;99904.25;;;30.48;nan
63287;BME280;49410;55.708;37.522;2022-08-04T11:35:43;99891.91;;;30.44;nan
63287;BME280;49410;55.708;37.522;2022-08-04T11:38:25;99878.97;;;30.37;nan
63287;BME280;49410;55.708;37.522;2022-08-04T11:40:56;99890.69;;;30.50;nan
63287;BME280;49410;55.708;37.522;2022-08-04T11:43:32;99879.25;;;30.41;nan
63287;BME280;49410;55.708;37.522;2022-08-04T11:46:06;99870.81;;;30.36;nan
63287;BME280;49410;55.708;37.522;2022-08-04T11:48:36;99881.06;;;30.27;nan
63287;BME280;49410;55.708;37.522;2022-08-04T11:51:06;99879.44;;;30.20;nan
63287;BME280;49410;55.708;37.522;2022-08-04T11:53:34;99880.72;;;30.04;nan
63287;BME280;49410;55.708;37.522;2022-08-04T11:56:04;99874.50;;;30.07;nan
63287;BME280;49410;55.708;37.522;2022-08-04T11:58:30;99873.22;;;29.89;nan
63287;BME280;49410;55.708;37.522;2022-08-04T12:04:04;99888.13;;;29.95;nan
63287;BME280;49410;55.708;37.522;2022-08-04T12:09:23;99887.75;;;30.07;nan
63287;BME280;49410;55.708;37.522;2022-08-04T12:14:33;99891.56;;;29.86;nan
63287;BME280;49410;55.708;37.522;2022-08-04T12:17:04;99869.16;;;29.71;nan
63287;BME280;49410;55.708;37.522;2022-08-04T12:22:31;99886.00;;;29.76;nan
63287;BME280;49410;55.708;37.522;2022-08-04T12:25:02;99863.16;;;29.78;nan
63287;BME280;49410;55.708;37.522;2022-08-04T12:27:36;99868.84;;;29.72;nan
63287;BME280;49410;55.708;37.522;2022-08-04T12:30:04;99859.81;;;29.75;nan
63287;BME280;49410;55.708;37.522;2022-08-04T12:35:28;99863.13;;;29.83;nan
63287;BME280;49410;55.708;37.522;2022-08-04T12:38:06;99858.28;;;29.88;nan
63287;BME280;49410;55.708;37.522;2022-08-04T12:40:38;99866.72;;;29.94;nan
63287;BME280;49410;55.708;37.522;2022-08-04T12:43:12;99845.88;;;29.89;nan
63287;BME280;49410;55.708;37.522;2022-08-04T12:45:44;99848.31;;;29.67;nan
63287;BME280;49410;55.708;37.522;2022-08-04T12:48:11;99853.88;;;29.77;nan
63287;BME280;49410;55.708;37.522;2022-08-04T12:50:38;99852.41;;;29.85;nan
63287;BME280;49410;55.708;37.522;2022-08-04T12:53:11;99859.97;;;29.89;nan
63287;BME280;49410;55.708;37.522;2022-08-04T12:55:44;99863.06;;;29.93;nan
63287;BME280;49410;55.708;37.522;2022-08-04T12:58:15;99854.03;;;29.96;nan
63287;BME280;49410;55.708;37.522;2022-08-04T13:00:43;99850.59;;;29.99;nan
63287;BME280;49410;55.708;37.522;2022-08-04T13:03:14;99853.97;;;30.01;nan
63287;BME280;49410;55.708;37.522;2022-08-04T13:05:42;99851.63;;;30.09;nan
63287;BME280;49410;55.708;37.522;2022-08-04T13:08:10;99854.41;;;30.14;nan
63287;BME280;49410;55.708;37.522;2022-08-04T13:10:46;99860.88;;;30.14;nan
63287;BME280;49410;55.708;37.522;2022-08-04T13:13:17;99845.47;;;30.07;nan
63287;BME280;49410;55.708;37.522;2022-08-04T13:15:54;99843.78;;;30.05;nan
63287;BME280;49410;55.708;37.522;2022-08-04T13:18:20;99843.97;;;30.14;nan
63287;BME280;49410;55.708;37.522;2022-08-04T13:20:47;99843.97;;;30.14;nan
63287;BME280;49410;55.708;37.522;2022-08-04T13:23:15;99837.66;;;29.98;nan
63287;BME280;49410;55.708;37.522;2022-08-04T13:25:43;99854.47;;;30.09;nan
63287;BME280;49410;55.708;37.522;2022-08-04T13:28:27;99845.47;;;30.07;nan
63287;BME280;49410;55.708;37.522;2022-08-04T13:31:05;99843.00;;;30.00;nan
63287;BME280;49410;55.708;37.522;2022-08-04T13:33:33;99837.13;;;29.96;nan
63287;BME280;49410;55.708;37.522;2022-08-04T13:36:00;99845.28;;;29.98;nan
63287;BME280;49410;55.708;37.522;2022-08-04T13:38:27;99832.06;;;29.88;nan
63287;BME280;49410;55.708;37.522;2022-08-04T13:40:59;99830.94;;;29.89;nan
63287;BME280;49410;55.708;37.522;2022-08-04T13:43:29;99828.47;;;29.82;nan
63287;BME280;49410;55.708;37.522;2022-08-04T13:46:01;99821.66;;;29.88;nan
63287;BME280;49410;55.708;37.522;2022-08-04T13:48:35;99830.09;;;29.88;nan
63287;BME280;49410;55.708;37.522;2022-08-04T13:51:03;99817.75;;;29.84;nan
63287;BME280;49410;55.708;37.522;2022-08-04T13:53:34;99834.00;;;29.93;nan
63287;BME280;49410;55.708;37.522;2022-08-04T13:56:02;99826.16;;;29.89;nan
63287;BME280;49410;55.708;37.522;2022-08-04T13:58:41;99826.16;;;29.89;nan
63287;BME280;49410;55.708;37.522;2022-08-04T14:01:15;99821.63;;;29.94;nan
63287;BME280;49410;55.708;37.522;2022-08-04T14:03:56;99817.16;;;29.87;nan
63287;BME280;49410;55.708;37.522;2022-08-04T14:06:33;99815.16;;;29.93;nan
63287;BME280;49410;55.708;37.522;2022-08-04T14:09:07;99811.75;;;29.96;nan
63287;BME280;49410;55.708;37.522;2022-08-04T14:11:35;99818.16;;;30.02;nan
63287;BME280;49410;55.708;37.522;2022-08-04T14:14:28;99811.16;;;29.99;nan
63287;BME280;49410;55.708;37.522;2022-08-04T14:16:59;99798.25;;;29.88;nan
63287;BME280;49410;55.708;37.522;2022-08-04T14:19:27;99807.91;;;29.82;nan
63287;BME280;49410;55.708;37.522;2022-08-04T14:21:53;99812.34;;;29.88;nan
63287;BME280;49410;55.708;37.522;2022-08-04T14:24:23;99802.31;;;29.77;nan
63287;BME280;49410;55.708;37.522;2022-08-04T14:26:49;99802.84;;;29.79;nan
63287;BME280;49410;55.708;37.522;2022-08-04T14:29:16;99795.03;;;29.75;nan
63287;BME280;49410;55.708;37.522;2022-08-04T14:31:42;99796.19;;;29.69;nan
63287;BME280;49410;55.708;37.522;2022-08-04T14:34:08;99803.25;;;29.67;nan
63287;BME280;49410;55.708;37.522;2022-08-04T14:36:41;99797.41;;;29.58;nan
63287;BME280;49410;55.708;37.522;2022-08-04T14:39:07;99805.81;;;29.63;nan
63287;BME280;49410;55.708;37.522;2022-08-04T14:41:48;99802.56;;;29.46;nan
63287;BME280;49410;55.708;37.522;2022-08-04T14:44:15;99813.50;;;29.52;nan
63287;BME280;49410;55.708;37.522;2022-08-04T14:46:52;99803.38;;;29.51;nan
63287;BME280;49410;55.708;37.522;2022-08-04T14:49:18;99808.72;;;29.53;nan
63287;BME280;49410;55.708;37.522;2022-08-04T14:51:51;99802.53;;;29.51;nan
63287;BME280;49410;55.708;37.522;2022-08-04T14:54:28;99816.63;;;29.51;nan
63287;BME280;49410;55.708;37.522;2022-08-04T14:57:00;99814.06;;;29.54;nan
63287;BME280;49410;55.708;37.522;2022-08-04T14:59:26;99812.69;;;29.52;nan
63287;BME280;49410;55.708;37.522;2022-08-04T15:02:04;99804.00;;;29.43;nan
63287;BME280;49410;55.708;37.522;2022-08-04T15:04:30;99817.81;;;29.44;nan
63287;BME280;49410;55.708;37.522;2022-08-04T15:06:55;99813.88;;;29.40;nan
63287;BME280;49410;55.708;37.522;2022-08-04T15:09:21;99815.91;;;29.29;nan
63287;BME280;49410;55.708;37.522;2022-08-04T15:11:47;99811.69;;;29.27;nan
63287;BME280;49410;55.708;37.522;2022-08-04T15:14:13;99815.38;;;29.22;nan
63287;BME280;49410;55.708;37.522;2022-08-04T15:16:39;99801.94;;;29.14;nan
63287;BME280;49410;55.708;37.522;2022-08-04T15:19:06;99807.94;;;29.02;nan
63287;BME280;49410;55.708;37.522;2022-08-04T15:21:31;99822.56;;;29.04;nan
63287;BME280;49410;55.708;37.522;2022-08-04T15:23:58;99818.63;;;29.00;nan
63287;BME280;49410;55.708;37.522;2022-08-04T15:26:27;99816.94;;;28.99;nan
63287;BME280;49410;55.708;37.522;2022-08-04T15:29:45;99808.25;;;28.90;nan
63287;BME280;49410;55.708;37.522;2022-08-04T15:31:46;99818.44;;;28.86;nan
63287;BME280;49410;55.708;37.522;2022-08-04T15:34:12;99825.75;;;28.82;nan
63287;BME280;49410;55.708;37.522;2022-08-04T15:36:51;99821.56;;;28.79;nan
63287;BME280;49410;55.708;37.522;2022-08-04T15:39:33;99826.34;;;28.79;nan
63287;BME280;49410;55.708;37.522;2022-08-04T15:42:13;99825.53;;;28.73;nan
63287;BME280;49410;55.708;37.522;2022-08-04T15:50:24;99821.03;;;28.62;nan
63287;BME280;49410;55.708;37.522;2022-08-04T15:53:01;99819.38;;;28.56;nan
63287;BME280;49410;55.708;37.522;2022-08-04T15:55:40;99821.09;;;28.51;nan
63287;BME280;49410;55.708;37.522;2022-08-04T15:58:07;99826.41;;;28.53;nan
63287;BME280;49410;55.708;37.522;2022-08-04T16:03:50;99820.03;;;28.32;nan
63287;BME280;49410;55.708;37.522;2022-08-04T16:19:08;99836.91;;;28.06;nan
63287;BME280;49410;55.708;37.522;2022-08-04T16:21:57;99837.78;;;27.96;nan
63287;BME280;49410;55.708;37.522;2022-08-04T16:24:40;99841.69;;;27.90;nan
63287;BME280;49410;55.708;37.522;2022-08-04T16:27:07;99832.41;;;27.84;nan
63287;BME280;49410;55.708;37.522;2022-08-04T16:29:39;99834.41;;;27.84;nan
63287;BME280;49410;55.708;37.522;2022-08-04T16:34:46;99843.38;;;27.81;nan
63287;BME280;49410;55.708;37.522;2022-08-04T16:37:16;99845.91;;;27.77;nan
63287;BME280;49410;55.708;37.522;2022-08-04T16:39:42;99847.03;;;27.76;nan
63287;BME280;49410;55.708;37.522;2022-08-04T16:42:28;99850.41;;;27.68;nan
63287;BME280;49410;55.708;37.522;2022-08-04T16:50:16;99855.19;;;27.52;nan
63287;BME280;49410;55.708;37.522;2022-08-04T16:52:44;99855.72;;;27.43;nan
63287;BME280;49410;55.708;37.522;2022-08-04T16:55:11;99816.91;;;27.20;nan
63287;BME280;49410;55.708;37.522;2022-08-04T16:57:37;99843.31;;;27.29;nan
63287;BME280;49410;55.708;37.522;2022-08-04T17:00:04;99843.03;;;27.25;nan
63287;BME280;49410;55.708;37.522;2022-08-04T17:02:30;99856.50;;;27.18;nan
63287;BME280;49410;55.708;37.522;2022-08-04T17:04:56;99848.06;;;27.08;nan
63287;BME280;49410;55.708;37.522;2022-08-04T17:07:21;99846.91;;;26.99;nan
63287;BME280;49410;55.708;37.522;2022-08-04T17:09:50;99853.88;;;26.86;nan
63287;BME280;49410;55.708;37.522;2022-08-04T17:12:16;99859.41;;;26.75;nan
63287;BME280;49410;55.708;37.522;2022-08-04T17:14:42;99858.22;;;26.66;nan
63287;BME280;49410;55.708;37.522;2022-08-04T17:17:08;99852.84;;;26.49;nan
63287;BME280;49410;55.708;37.522;2022-08-04T17:19:35;99857.53;;;26.38;nan
63287;BME280;49410;55.708;37.522;2022-08-04T17:22:03;99863.06;;;26.23;nan
63287;BME280;49410;55.708;37.522;2022-08-04T17:24:32;99864.13;;;26.16;nan
63287;BME280;49410;55.708;37.522;2022-08-04T17:26:58;99877.25;;;26.11;nan
63287;BME280;49410;55.708;37.522;2022-08-04T17:29:26;99864.81;;;26.01;nan
63287;BME280;49410;55.708;37.522;2022-08-04T17:31:54;99875.44;;;25.94;nan
63287;BME280;49410;55.708;37.522;2022-08-04T17:34:20;99856.53;;;25.79;nan
63287;BME280;49410;55.708;37.522;2022-08-04T17:36:46;99869.06;;;25.71;nan
63287;BME280;49410;55.708;37.522;2022-08-04T17:39:18;99884.44;;;25.69;nan
63287;BME280;49410;55.708;37.522;2022-08-04T17:41:44;99882.94;;;25.56;nan
63287;BME280;49410;55.708;37.522;2022-08-04T17:44:10;99879.47;;;25.43;nan
63287;BME280;49410;55.708;37.522;2022-08-04T17:46:40;99883.84;;;25.39;nan
63287;BME280;49410;55.708;37.522;2022-08-04T17:51:47;99888.13;;;25.20;nan
63287;BME280;49410;55.708;37.522;2022-08-04T17:54:19;99879.88;;;25.08;nan
63287;BME280;49410;55.708;37.522;2022-08-04T17:56:49;99844.34;;;24.81;nan